Terminal Aerodrome Forecast
Issued by NWS Wilmington, OH

Current Version | Previous Version | Graphics & Text | Print | Product List | Glossary On
Versions: 1 2 3 4 5 6 7 8 9 10 11 12 13 14 15 16 17 18 19
000
FTUS41 KILN 201041 AAC
TAFILN
TAF AMD
KILN 201041Z 2011/2106 VRB03KT P6SM FEW090
     FM201400 19006KT P6SM FEW040
     FM210100 00000KT P6SM FEW250=

USA.gov is the U.S. government's official web portal to all federal, state and local government web resources and services.